Flight Track Log - Related Links

Times and Time Zones

All times are in EDT time to prevent confusion due to time zone crossing. See the N865JM flight status page for this flight to view local times or setup timezone preferences in your user account.

Time Position Orientation Groundspeed Altitude Reporting Facility
EDT Latitude Longitude Course Direction KTS MPH feet Rate Location/Type
Tue 02:03:19 PM 26.6761 -80.0650 18° North 78 90 1,500  Level Miami Center
Tue 02:05:00 PM 26.8414 -80.0056 18° North  Level Estimated
Tue 02:12:00 PM 27.5284 -79.7567 18° North  Level Estimated
Tue 02:13:00 PM 27.6265 -79.7209 18° North  Level Estimated
Tue 02:14:00 PM 27.7246 -79.6850 18° North  Level Estimated
Tue 02:15:00 PM 27.8227 -79.6490 18° North  Level Estimated
Tue 02:16:00 PM 27.9208 -79.6130 18° North  Level Estimated
Tue 02:17:00 PM 28.0189 -79.5770 18° North  Level Estimated
Tue 02:18:00 PM 28.1170 -79.5408 18° North  Level Estimated
Tue 02:19:00 PM 28.2150 -79.5046 18° North  Level Estimated
Tue 02:20:00 PM 28.3131 -79.4684 18° North  Level Estimated
Tue 02:21:00 PM 28.4111 -79.4320 18° North  Level Estimated
Tue 02:22:00 PM 28.5091 -79.3956 18° North  Level Estimated
Tue 02:23:00 PM 28.6072 -79.3591 18° North  Level Estimated
Tue 02:24:00 PM 28.7052 -79.3226 18° North  Level Estimated
Tue 02:25:00 PM 28.8032 -79.2860 18° North  Level Estimated
Tue 02:26:00 PM 28.9012 -79.2493 18° North  Level Estimated
Tue 02:27:00 PM 28.9991 -79.2125 18° North  Level Estimated
Tue 02:28:00 PM 29.0971 -79.1757 18° North  Level Estimated
Tue 02:29:00 PM 29.1951 -79.1388 18° North  Level Estimated
Tue 02:30:00 PM 29.2930 -79.1019 18° North  Level Estimated
Tue 02:31:00 PM 29.3910 -79.0648 18° North  Level Estimated
Tue 02:32:00 PM 29.4889 -79.0277 18° North  Level Estimated
Tue 02:33:00 PM 29.5868 -78.9906 18° North  Level Estimated
Tue 02:34:00 PM 29.6847 -78.9533 18° North  Level Estimated
Tue 02:35:00 PM 29.7826 -78.9160 18° North  Level Estimated
Tue 02:36:00 PM 29.8805 -78.8786 18° North  Level Estimated
Tue 02:37:00 PM 29.9784 -78.8412 18° North  Level Estimated
Tue 02:38:00 PM 30.0763 -78.8036 18° North  Level Estimated
Tue 02:39:00 PM 30.1741 -78.7660 18° North  Level Estimated
Tue 02:40:00 PM 30.2719 -78.7283 18° North  Level Estimated
Tue 02:41:00 PM 30.3698 -78.6906 18° North  Level Estimated
Tue 02:42:00 PM 30.4676 -78.6527 18° North  Level Estimated
Tue 02:43:00 PM 30.5654 -78.6148 18° North  Level Estimated
Tue 02:44:00 PM 30.6632 -78.5768 18° North  Level Estimated
Tue 02:45:00 PM 30.7610 -78.5388 18° North  Level Estimated
Tue 02:46:00 PM 30.8588 -78.5006 19° North  Level Estimated
Tue 02:47:00 PM 30.9565 -78.4624 19° North  Level Estimated
Tue 02:48:00 PM 31.0543 -78.4241 19° North  Level Estimated
Tue 02:49:00 PM 31.1520 -78.3857 19° North  Level Estimated
Tue 02:50:00 PM 31.2498 -78.3473 19° North  Level Estimated
Tue 02:51:00 PM 31.3475 -78.3087 19° North  Level Estimated
Tue 02:52:00 PM 31.4452 -78.2701 19° North  Level Estimated
Tue 02:53:00 PM 31.5429 -78.2314 19° North  Level Estimated
Tue 02:54:00 PM 31.6406 -78.1926 19° North  Level Estimated
Tue 02:55:00 PM 31.7383 -78.1538 19° North  Level Estimated
Tue 02:56:00 PM 31.8359 -78.1148 19° North  Level Estimated
Tue 02:57:00 PM 31.9336 -78.0758 19° North  Level Estimated
Tue 02:58:00 PM 32.0312 -78.0367 19° North  Level Estimated
Tue 02:59:00 PM 32.1288 -77.9975 19° North  Level Estimated
Tue 03:00:00 PM 32.2264 -77.9582 19° North  Level Estimated
Tue 03:01:00 PM 32.3240 -77.9189 19° North  Level Estimated
Tue 03:02:00 PM 32.4216 -77.8794 19° North  Level Estimated
Tue 03:03:00 PM 32.5192 -77.8399 19° North  Level Estimated
Tue 03:04:00 PM 32.6168 -77.8002 19° North  Level Estimated
Tue 03:05:00 PM 32.7143 -77.7606 19° North  Level Estimated
Tue 03:06:00 PM 32.8119 -77.7208 19° North  Level Estimated
Tue 03:07:00 PM 32.9094 -77.6809 19° North  Level Estimated
Tue 03:08:00 PM 33.0069 -77.6409 19° North  Level Estimated
Tue 03:09:00 PM 33.1044 -77.6009 19° North  Level Estimated
Tue 03:10:00 PM 33.2019 -77.5607 19° North  Level Estimated
Tue 03:11:00 PM 33.2994 -77.5205 19° North  Level Estimated
Tue 03:12:00 PM 33.3968 -77.4802 19° North  Level Estimated
Tue 03:13:00 PM 33.4943 -77.4398 19° North  Level Estimated
Tue 03:14:00 PM 33.5917 -77.3993 19° North  Level Estimated
Tue 03:15:00 PM 33.6892 -77.3587 19° North  Level Estimated
Tue 03:16:00 PM 33.7866 -77.3180 19° North  Level Estimated
Tue 03:17:00 PM 33.8840 -77.2772 19° North  Level Estimated
Tue 03:18:00 PM 33.9813 -77.2363 19° North  Level Estimated
Tue 03:19:00 PM 34.0787 -77.1954 19° North  Level Estimated
Tue 03:20:00 PM 34.1761 -77.1543 19° North  Level Estimated
Tue 03:21:00 PM 34.2734 -77.1131 19° North  Level Estimated
Tue 03:22:00 PM 34.3707 -77.0719 19° North  Level Estimated
Tue 03:23:00 PM 34.4681 -77.0305 19° North  Level Estimated
Tue 03:24:00 PM 34.5654 -76.9891 19° North  Level Estimated
Tue 03:25:00 PM 34.6627 -76.9475 19° North  Level Estimated
Tue 03:26:00 PM 34.7599 -76.9059 19° North  Level Estimated
Tue 03:27:00 PM 34.8572 -76.8642 19° North  Level Estimated
Tue 03:28:00 PM 34.9544 -76.8223 19° North  Level Estimated
Tue 03:29:00 PM 35.0517 -76.7804 19° North  Level Estimated
Tue 03:30:00 PM 35.1489 -76.7383 19° North  Level Estimated
Tue 03:31:00 PM 35.2461 -76.6962 19° North  Level Estimated
Tue 03:32:00 PM 35.3433 -76.6540 20° North  Level Estimated
Tue 03:33:00 PM 35.4404 -76.6116 20° North  Level Estimated
Tue 03:34:00 PM 35.5376 -76.5692 20° North  Level Estimated
Tue 03:35:00 PM 35.6347 -76.5266 20° North  Level Estimated
Tue 03:36:00 PM 35.7319 -76.4840 20° North  Level Estimated
Tue 03:37:00 PM 35.8290 -76.4412 20° North  Level Estimated
Tue 03:38:00 PM 35.9261 -76.3984 20° North  Level Estimated
Tue 03:39:00 PM 36.0232 -76.3554 20° North  Level Estimated
Tue 03:40:00 PM 36.1202 -76.3123 20° North  Level Estimated
Tue 03:41:00 PM 36.2173 -76.2692 20° North  Level Estimated
Tue 03:42:00 PM 36.3143 -76.2259 20° North  Level Estimated
Tue 03:43:00 PM 36.4113 -76.1825 20° North  Level Estimated
Tue 03:44:00 PM 36.5083 -76.1390 20° North  Level Estimated
Tue 03:45:00 PM 36.6053 -76.0954 20° North  Level Estimated
Tue 03:46:00 PM 36.7023 -76.0517 20° North  Level Estimated
Tue 03:47:00 PM 36.7993 -76.0078 20° North  Level Estimated
Tue 03:48:00 PM 36.8962 -75.9639 20° North  Level Estimated
Tue 03:49:00 PM 36.9931 -75.9198 20° North  Level Estimated
Tue 03:50:00 PM 37.0900 -75.8757 20° North  Level Estimated
Tue 03:51:00 PM 37.1869 -75.8314 20° North  Level Estimated
Tue 03:52:00 PM 37.2838 -75.7870 20° North  Level Estimated
Tue 03:53:00 PM 37.3806 -75.7425 20° North  Level Estimated
Tue 03:54:00 PM 37.4775 -75.6979 20° North  Level Estimated
Tue 03:55:00 PM 37.5743 -75.6532 20° North  Level Estimated
Tue 03:56:00 PM 37.6711 -75.6083 20° North  Level Estimated
Tue 03:57:00 PM 37.7679 -75.5633 20° North  Level Estimated
Tue 03:58:00 PM 37.8647 -75.5182 20° North  Level Estimated
Tue 03:59:00 PM 37.9614 -75.4730 20° North  Level Estimated
Tue 04:00:00 PM 38.0582 -75.4277 20° North  Level Estimated
Tue 04:01:00 PM 38.1549 -75.3823 20° North  Level Estimated
Tue 04:02:00 PM 38.2516 -75.3367 20° North  Level Estimated
Tue 04:03:00 PM 38.3483 -75.2910 20° North  Level Estimated
Tue 04:04:00 PM 38.4450 -75.2452 20° North  Level Estimated
Tue 04:05:00 PM 38.5416 -75.1993 20° North  Level Estimated
Tue 04:06:00 PM 38.6382 -75.1532 20° North  Level Estimated
Tue 04:07:00 PM 38.7348 -75.1070 20° North  Level Estimated
Tue 04:08:00 PM 38.8314 -75.0607 20° North  Level Estimated
Tue 04:09:00 PM 38.9280 -75.0143 21° North  Level Estimated
Tue 04:10:00 PM 39.0246 -74.9677 21° North  Level Estimated
Tue 04:11:00 PM 39.1211 -74.9211 21° North  Level Estimated
Tue 04:12:00 PM 39.2176 -74.8743 21° North  Level Estimated
Tue 04:13:00 PM 39.3141 -74.8273 21° North  Level Estimated
Tue 04:14:00 PM 39.4106 -74.7802 21° North  Level Estimated
Tue 04:15:00 PM 39.5071 -74.7330 21° North  Level Estimated
Tue 04:16:00 PM 39.6035 -74.6857 21° North  Level Estimated
Tue 04:17:00 PM 39.7000 -74.6382 21° North  Level Estimated
Tue 04:18:00 PM 39.7964 -74.5906 21° North  Level Estimated
Tue 04:19:00 PM 39.8928 -74.5429 21° North  Level Estimated
Tue 04:20:00 PM 39.9891 -74.4950 21° North  Level Estimated
Tue 04:21:00 PM 40.0855 -74.4470 21° North  Level Estimated
Tue 04:22:00 PM 40.1818 -74.3989 21° North  Level Estimated
Tue 04:23:00 PM 40.2781 -74.3506 21° North  Level Estimated
Tue 04:24:00 PM 40.3744 -74.3022 21° North  Level Estimated
Tue 04:25:00 PM 40.4707 -74.2537 21° North  Level Estimated
Tue 04:26:00 PM 40.5669 -74.2050 21° North  Level Estimated
Tue 04:27:00 PM 40.6632 -74.1561 21° North  Level Estimated
Tue 04:28:00 PM 40.7594 -74.1072 21° North  Level Estimated
Tue 04:29:00 PM 40.8501 -74.0608 21° North  Level Estimated
Tue 04:30:00 PM 40.8501 -74.0608 294° West  Level Estimated
Tue 04:31:00 PM 40.8501 -74.0608 294° West  Level Estimated
Tue 04:32:00 PM 40.8501 -74.0608 294° West  Level Estimated
Tue 04:33:00 PM 40.8501 -74.0608 294° West  Level Estimated
Tue 04:34:00 PM 40.8501 -74.0608 294° West  Level Estimated
Tue 04:35:00 PM 40.8501 -74.0608 294° West  Level Estimated
Tue 04:36:00 PM 40.8501 -74.0608 294° West  Level Estimated
Tue 04:37:00 PM 40.8501 -74.0608 294° West  Level Estimated
Tue 04:38:00 PM 40.8501 -74.0608 294° West  Level Estimated
Tue 04:39:00 PM 40.8501 -74.0608 294° West  Level Estimated
Tue 04:40:00 PM 40.8501 -74.0608 294° West  Level Estimated
Tue 04:41:00 PM 40.8501 -74.0608 294° West  Level Estimated
Tue 04:42:00 PM 40.8501 -74.0608 294° West  Level Estimated
Tue 04:43:00 PM 40.8501 -74.0608 294° West  Level Estimated
Tue 04:44:00 PM 40.8501 -74.0608 294° West  Level Estimated
Tue 04:45:00 PM 40.8501 -74.0608 294° West  Level Estimated
Tue 04:46:00 PM 40.8501 -74.0608 294° West  Level Estimated
Tue 04:47:00 PM 40.8501 -74.0608 294° West  Level Estimated
Tue 04:48:00 PM 40.8501 -74.0608 294° West  Level Estimated
Tue 04:49:00 PM 40.8501 -74.0608 294° West  Level Estimated
Tue 04:50:00 PM 40.8501 -74.0608 294° West  Level Estimated
Tue 04:51:00 PM 40.8501 -74.0608 294° West  Level Estimated
Tue 04:52:00 PM 40.8501 -74.0608 294° West  Level Estimated
Tue 04:53:00 PM 40.8501 -74.0608 294° West  Level Estimated
Tue 04:54:00 PM 40.8501 -74.0608 294° West  Level Estimated
Tue 04:55:00 PM 40.8501 -74.0608 294° West  Level Estimated
Tue 04:56:00 PM 40.8501 -74.0608 294° West  Level Estimated
Tue 04:57:00 PM 40.8501 -74.0608 294° West  Level Estimated
Tue 04:58:00 PM 40.8501 -74.0608 294° West  Level Estimated
Tue 04:59:00 PM 40.8501 -74.0608 294° West  Level Estimated
Tue 05:00:00 PM 40.8501 -74.0608 294° West  Level Estimated
Tue 05:01:00 PM 40.8501 -74.0608 294° West  Level Estimated
Tue 05:02:00 PM 40.8501 -74.0608 294° West  Level Estimated
Tue 05:03:00 PM 40.8501 -74.0608 294° West  Level Estimated
Tue 05:04:00 PM 40.8501 -74.0608 294° West  Level Estimated
Tue 05:05:00 PM 40.8501 -74.0608 294° West  Level Estimated

Login

Don't have an account? Register now (free) for customized features, flight alerts, and more!